Redmer Oldendorff — D5JV9 — position and weather

sailwx.info

Track history (hours):
 
Tides and Currents Weather Stations Pressure Air Temp Water Temp Dewpoint Dewpoint Depression Visibility Wind Speed Wind Dir Waves Ship Positions

Redmer Oldendorff

Last reported at 2018-Jun-21 15:42 UTC. Time now 2018-Jun-21 18:08 UTC.
Position N 27°30' W 015°15'.

Length 260 m; draft 7.5 m.

Type: Cargo ship. MMSI: 636017224.

Date/timePositionNaut miles runAvg speedWind from/ knotsBaromVisibWave heightAir tempDewpointWater temp
2018-Jun-21 15:42N 27°30' W 015°15'312.3
2018-Jun-21 15:28N 27°33' W 015°14'612.4
2018-Jun-21 15:00N 27°38' W 015°11'612.3
2018-Jun-21 14:28N 27°45' W 015°09'612.1
2018-Jun-21 14:00N 27°50' W 015°07'612.0
2018-Jun-21 13:30N 27°56' W 015°05'611.8
2018-Jun-21 13:00N 28°01' W 015°03'611.8
2018-Jun-21 12:30N 28°07' W 015°00'612.0
2018-Jun-21 12:00N 28°12' W 014°58'612.2
2018-Jun-21 11:29N 28°18' W 014°56'612.0
2018-Jun-21 11:00N 28°24' W 014°54'611.8
2018-Jun-21 10:30N 28°30' W 014°52'611.6
2018-Jun-21 10:00N 28°35' W 014°50'611.7
2018-Jun-21 09:30N 28°41' W 014°49'611.8
2018-Jun-21 08:58N 28°47' W 014°47'611.9
2018-Jun-21 08:30N 28°52' W 014°45'611.8
2018-Jun-21 07:59N 28°58' W 014°43'611.7
2018-Jun-21 07:30N 29°04' W 014°41'611.5
2018-Jun-21 06:56N 29°10' W 014°39'511.5
2018-Jun-21 06:30N 29°14' W 014°38'611.6
2018-Jun-21 05:59N 29°20' W 014°36'611.7
2018-Jun-21 05:29N 29°26' W 014°34'611.8
2018-Jun-21 04:59N 29°32' W 014°32'612.2
2018-Jun-21 04:30N 29°37' W 014°30'612.6
2018-Jun-21 03:59N 29°44' W 014°28'612.1
2018-Jun-21 03:30N 29°49' W 014°26'611.8
2018-Jun-21 03:00N 29°55' W 014°25'911.7
2018-Jun-21 02:11N 30°04' W 014°22'211.7
2018-Jun-21 01:59N 30°06' W 014°21'912.1
2018-Jun-21 01:13N 30°15' W 014°18'55011.8
2018-Jun-19 02:38N 39°05' W 011°17'210.8
2018-Jun-19 02:25N 39°07' W 011°16'511.0
2018-Jun-19 02:00N 39°12' W 011°14'611.3
2018-Jun-19 01:28N 39°18' W 011°12'6011.5
2018-Jun-18 20:12N 40°16' W 010°51'311.6
2018-Jun-18 19:57N 40°18' W 010°50'306 9.1
2018-Jun-17 10:11N 43°57' W 006°02'411.0
2018-Jun-17 09:49N 43°55' W 005°57'411.0
2018-Jun-17 09:27N 43°53' W 005°53'611.1
2018-Jun-17 08:57N 43°49' W 005°47'510.7
2018-Jun-17 08:30N 43°46' W 005°42'510.5
2018-Jun-17 08:00N 43°40' W 005°40'5 9.6
2018-Jun-17 07:30N 43°36' W 005°39'1 1.4
2018-Jun-17 06:58N 43°36' W 005°38'1 1.2
2018-Jun-17 06:30N 43°36' W 005°38'1 2.4
2018-Jun-17 06:00N 43°35' W 005°39'2 4.1
2018-Jun-17 05:30N 43°34' W 005°41'0 0.0
2018-Jun-17 04:39N 43°34' W 005°41'0 0.0
2018-Jun-17 04:15N 43°34' W 005°41'0 0.0
2018-Jun-17 03:57N 43°34' W 005°41'0 0.0
2018-Jun-17 03:21N 43°34' W 005°41'0 0.0
2018-Jun-17 02:09N 43°34' W 005°41'0 0.0
2018-Jun-17 01:51N 43°34' W 005°41'0 0.0
2018-Jun-17 00:39N 43°34' W 005°41'0 0.0
2018-Jun-17 00:15N 43°34' W 005°41'0 0.0
2018-Jun-16 23:57N 43°34' W 005°41'0 0.0
2018-Jun-16 22:57N 43°34' W 005°41'0 0.0
2018-Jun-16 22:15N 43°34' W 005°41'0 0.0
2018-Jun-16 21:45N 43°34' W 005°41'0 0.0
2018-Jun-16 21:21N 43°34' W 005°41'0 0.0
2018-Jun-16 20:57N 43°34' W 005°41'0 0.0
2018-Jun-16 20:21N 43°34' W 005°41'0 0.0
2018-Jun-16 19:51N 43°34' W 005°41'0 0.0
2018-Jun-16 19:27N 43°34' W 005°41'0 0.0
2018-Jun-16 17:57N 43°34' W 005°41'0 0.0
2018-Jun-16 17:21N 43°34' W 005°41'0 0.0
2018-Jun-16 16:45N 43°34' W 005°41'0 0.0
2018-Jun-16 16:09N 43°34' W 005°41'0 0.0
2018-Jun-16 15:51N 43°34' W 005°41'0 0.0
2018-Jun-16 14:51N 43°34' W 005°41'0 0.0
2018-Jun-16 14:27N 43°34' W 005°41'0 0.0
2018-Jun-16 13:51N 43°34' W 005°41'0 0.0
2018-Jun-16 13:09N 43°34' W 005°41'0 0.0
2018-Jun-16 12:51N 43°34' W 005°41'0 0.0
2018-Jun-16 11:33N 43°34' W 005°41'0 0.0
2018-Jun-16 11:15N 43°34' W 005°41'0 0.0
2018-Jun-16 10:51N 43°34' W 005°41'0 0.0
2018-Jun-16 10:27N 43°34' W 005°41'0 0.0
2018-Jun-16 09:57N 43°34' W 005°41'0 0.0
2018-Jun-16 09:15N 43°34' W 005°41'0 0.0
2018-Jun-16 08:57N 43°34' W 005°41'0 0.0
2018-Jun-16 06:57N 43°34' W 005°41'0 0.0
2018-Jun-16 06:15N 43°34' W 005°41'0 0.0
2018-Jun-16 05:57N 43°34' W 005°41'0 0.0
2018-Jun-16 05:27N 43°34' W 005°41'0 0.0
2018-Jun-16 04:57N 43°34' W 005°41'0 0.0
2018-Jun-16 04:21N 43°34' W 005°41'0 0.0
2018-Jun-16 03:57N 43°34' W 005°41'0 0.0
2018-Jun-16 03:15N 43°34' W 005°41'0 0.0
2018-Jun-16 02:51N 43°34' W 005°41'0 0.0
2018-Jun-16 02:27N 43°34' W 005°41'0 0.0
2018-Jun-16 01:57N 43°34' W 005°41'0 0.0
2018-Jun-16 01:27N 43°34' W 005°41'0 0.0
2018-Jun-16 00:09N 43°34' W 005°41'0 0.0
2018-Jun-15 23:57N 43°34' W 005°41'0 0.0
2018-Jun-15 23:27N 43°34' W 005°41'0 0.0
2018-Jun-15 22:51N 43°34' W 005°41'0 0.0
2018-Jun-15 22:21N 43°34' W 005°41'0 0.0
2018-Jun-15 21:57N 43°34' W 005°41'0 0.0
2018-Jun-15 21:27N 43°34' W 005°41'0 0.0
2018-Jun-15 20:51N 43°34' W 005°41'0 0.0
2018-Jun-15 20:15N 43°34' W 005°41'0 0.0
2018-Jun-15 19:45N 43°34' W 005°41'0 0.0
2018-Jun-15 19:27N 43°34' W 005°41'0 0.0
2018-Jun-15 17:39N 43°34' W 005°41'0 0.0
2018-Jun-15 17:21N 43°34' W 005°41'0 0.0
2018-Jun-15 16:51N 43°34' W 005°41'0 0.0
2018-Jun-15 16:27N 43°34' W 005°41'0 0.0
2018-Jun-15 15:57N 43°34' W 005°41'0 0.0
2018-Jun-15 15:27N 43°34' W 005°41'0 0.0
2018-Jun-15 14:51N 43°34' W 005°41'0 0.0
2018-Jun-15 14:27N 43°34' W 005°41'0 0.0
2018-Jun-15 13:57N 43°34' W 005°41'0 0.0
2018-Jun-15 13:27N 43°34' W 005°41'0 0.0
2018-Jun-15 12:45N 43°34' W 005°41'0 0.0
2018-Jun-15 12:21N 43°34' W 005°41'0 0.0
2018-Jun-15 11:57N 43°34' W 005°41'0 0.0
2018-Jun-15 11:27N 43°34' W 005°41'0 0.0
2018-Jun-15 10:09N 43°34' W 005°41'0 0.0
2018-Jun-15 09:45N 43°34' W 005°41'0 0.0
2018-Jun-15 09:15N 43°34' W 005°41'0 0.0
2018-Jun-15 08:15N 43°34' W 005°41'0 0.0
2018-Jun-15 07:57N 43°34' W 005°41'0 0.0
2018-Jun-15 07:27N 43°34' W 005°41'0 0.0
2018-Jun-15 06:57N 43°34' W 005°41'0 0.0
2018-Jun-15 06:21N 43°34' W 005°41'0 0.0
2018-Jun-15 05:27N 43°34' W 005°41'0 0.0
2018-Jun-15 04:45N 43°34' W 005°41'0 0.0
2018-Jun-15 04:15N 43°34' W 005°41'0 0.0
2018-Jun-15 03:51N 43°34' W 005°41'0 0.0
2018-Jun-15 03:27N 43°34' W 005°41'0 0.0
2018-Jun-15 02:57N 43°34' W 005°41'0 0.0
2018-Jun-15 02:15N 43°34' W 005°41'0 0.0
2018-Jun-14 20:03N 43°34' W 005°41'0 0.0
2018-Jun-14 19:45N 43°34' W 005°41'0 0.0
2018-Jun-14 19:15N 43°34' W 005°41'0 0.0
2018-Jun-14 18:45N 43°34' W 005°41'0 0.0
2018-Jun-14 18:21N 43°34' W 005°41'0 0.0
2018-Jun-14 17:57N 43°34' W 005°41'0 0.0
2018-Jun-14 17:21N 43°34' W 005°41'0 0.0
2018-Jun-14 16:51N 43°34' W 005°41'0 0.0
2018-Jun-14 16:27N 43°34' W 005°41'0 0.0
2018-Jun-14 15:57N 43°34' W 005°41'0 0.9
2018-Jun-14 15:28N 43°34' W 005°41'3 6.9
2018-Jun-14 15:00N 43°37' W 005°41'4 7.5
2018-Jun-14 14:29N 43°41' W 005°41'510.8
2018-Jun-14 14:00N 43°46' W 005°44'1312.0
2018-Jun-14 12:54N 43°51' W 006°01'  
Track history (hours):
 
Tides and Currents Weather Stations Pressure Air Temp Water Temp Dewpoint Dewpoint Depression Visibility Wind Speed Wind Dir Waves Ship Positions

Redmer Oldendorff

Last reported at 2018-Jun-21 15:42 UTC. Time now 2018-Jun-21 18:08 UTC.
Position N 27°30' W 015°15'.

Length 260 m; draft 7.5 m.

Type: Cargo ship. MMSI: 636017224.

Date/timePositionNaut miles runAvg speedWind from/ knotsBaromVisibWave heightAir tempDewpointWater temp
2018-Jun-21 15:42N 27°30' W 015°15'312.3
2018-Jun-21 15:28N 27°33' W 015°14'612.4
2018-Jun-21 15:00N 27°38' W 015°11'612.3
2018-Jun-21 14:28N 27°45' W 015°09'612.1
2018-Jun-21 14:00N 27°50' W 015°07'612.0
2018-Jun-21 13:30N 27°56' W 015°05'611.8
2018-Jun-21 13:00N 28°01' W 015°03'611.8
2018-Jun-21 12:30N 28°07' W 015°00'612.0
2018-Jun-21 12:00N 28°12' W 014°58'612.2
2018-Jun-21 11:29N 28°18' W 014°56'612.0
2018-Jun-21 11:00N 28°24' W 014°54'611.8
2018-Jun-21 10:30N 28°30' W 014°52'611.6
2018-Jun-21 10:00N 28°35' W 014°50'611.7
2018-Jun-21 09:30N 28°41' W 014°49'611.8
2018-Jun-21 08:58N 28°47' W 014°47'611.9
2018-Jun-21 08:30N 28°52' W 014°45'611.8
2018-Jun-21 07:59N 28°58' W 014°43'611.7
2018-Jun-21 07:30N 29°04' W 014°41'611.5
2018-Jun-21 06:56N 29°10' W 014°39'511.5
2018-Jun-21 06:30N 29°14' W 014°38'611.6
2018-Jun-21 05:59N 29°20' W 014°36'611.7
2018-Jun-21 05:29N 29°26' W 014°34'611.8
2018-Jun-21 04:59N 29°32' W 014°32'612.2
2018-Jun-21 04:30N 29°37' W 014°30'612.6
2018-Jun-21 03:59N 29°44' W 014°28'612.1
2018-Jun-21 03:30N 29°49' W 014°26'611.8
2018-Jun-21 03:00N 29°55' W 014°25'911.7
2018-Jun-21 02:11N 30°04' W 014°22'211.7
2018-Jun-21 01:59N 30°06' W 014°21'912.1
2018-Jun-21 01:13N 30°15' W 014°18'55011.8
2018-Jun-19 02:38N 39°05' W 011°17'210.8
2018-Jun-19 02:25N 39°07' W 011°16'511.0
2018-Jun-19 02:00N 39°12' W 011°14'611.3
2018-Jun-19 01:28N 39°18' W 011°12'6011.5
2018-Jun-18 20:12N 40°16' W 010°51'311.6
2018-Jun-18 19:57N 40°18' W 010°50'306 9.1
2018-Jun-17 10:11N 43°57' W 006°02'411.0
2018-Jun-17 09:49N 43°55' W 005°57'411.0
2018-Jun-17 09:27N 43°53' W 005°53'611.1
2018-Jun-17 08:57N 43°49' W 005°47'510.7
2018-Jun-17 08:30N 43°46' W 005°42'510.5
2018-Jun-17 08:00N 43°40' W 005°40'5 9.6
2018-Jun-17 07:30N 43°36' W 005°39'1 1.4
2018-Jun-17 06:58N 43°36' W 005°38'1 1.2
2018-Jun-17 06:30N 43°36' W 005°38'1 2.4
2018-Jun-17 06:00N 43°35' W 005°39'2 4.1
2018-Jun-17 05:30N 43°34' W 005°41'0 0.0
2018-Jun-17 04:39N 43°34' W 005°41'0 0.0
2018-Jun-17 04:15N 43°34' W 005°41'0 0.0
2018-Jun-17 03:57N 43°34' W 005°41'0 0.0
2018-Jun-17 03:21N 43°34' W 005°41'0 0.0
2018-Jun-17 02:09N 43°34' W 005°41'0 0.0
2018-Jun-17 01:51N 43°34' W 005°41'0 0.0
2018-Jun-17 00:39N 43°34' W 005°41'0 0.0
2018-Jun-17 00:15N 43°34' W 005°41'0 0.0
2018-Jun-16 23:57N 43°34' W 005°41'0 0.0
2018-Jun-16 22:57N 43°34' W 005°41'0 0.0
2018-Jun-16 22:15N 43°34' W 005°41'0 0.0
2018-Jun-16 21:45N 43°34' W 005°41'0 0.0
2018-Jun-16 21:21N 43°34' W 005°41'0 0.0
2018-Jun-16 20:57N 43°34' W 005°41'0 0.0
2018-Jun-16 20:21N 43°34' W 005°41'0 0.0
2018-Jun-16 19:51N 43°34' W 005°41'0 0.0
2018-Jun-16 19:27N 43°34' W 005°41'0 0.0
2018-Jun-16 17:57N 43°34' W 005°41'0 0.0
2018-Jun-16 17:21N 43°34' W 005°41'0 0.0
2018-Jun-16 16:45N 43°34' W 005°41'0 0.0
2018-Jun-16 16:09N 43°34' W 005°41'0 0.0
2018-Jun-16 15:51N 43°34' W 005°41'0 0.0
2018-Jun-16 14:51N 43°34' W 005°41'0 0.0
2018-Jun-16 14:27N 43°34' W 005°41'0 0.0
2018-Jun-16 13:51N 43°34' W 005°41'0 0.0
2018-Jun-16 13:09N 43°34' W 005°41'0 0.0
2018-Jun-16 12:51N 43°34' W 005°41'0 0.0
2018-Jun-16 11:33N 43°34' W 005°41'0 0.0
2018-Jun-16 11:15N 43°34' W 005°41'0 0.0
2018-Jun-16 10:51N 43°34' W 005°41'0 0.0
2018-Jun-16 10:27N 43°34' W 005°41'0 0.0
2018-Jun-16 09:57N 43°34' W 005°41'0 0.0
2018-Jun-16 09:15N 43°34' W 005°41'0 0.0
2018-Jun-16 08:57N 43°34' W 005°41'0 0.0
2018-Jun-16 06:57N 43°34' W 005°41'0 0.0
2018-Jun-16 06:15N 43°34' W 005°41'0 0.0
2018-Jun-16 05:57N 43°34' W 005°41'0 0.0
2018-Jun-16 05:27N 43°34' W 005°41'0 0.0
2018-Jun-16 04:57N 43°34' W 005°41'0 0.0
2018-Jun-16 04:21N 43°34' W 005°41'0 0.0
2018-Jun-16 03:57N 43°34' W 005°41'0 0.0
2018-Jun-16 03:15N 43°34' W 005°41'0 0.0
2018-Jun-16 02:51N 43°34' W 005°41'0 0.0
2018-Jun-16 02:27N 43°34' W 005°41'0 0.0
2018-Jun-16 01:57N 43°34' W 005°41'0 0.0
2018-Jun-16 01:27N 43°34' W 005°41'0 0.0
2018-Jun-16 00:09N 43°34' W 005°41'0 0.0
2018-Jun-15 23:57N 43°34' W 005°41'0 0.0
2018-Jun-15 23:27N 43°34' W 005°41'0 0.0
2018-Jun-15 22:51N 43°34' W 005°41'0 0.0
2018-Jun-15 22:21N 43°34' W 005°41'0 0.0
2018-Jun-15 21:57N 43°34' W 005°41'0 0.0
2018-Jun-15 21:27N 43°34' W 005°41'0 0.0
2018-Jun-15 20:51N 43°34' W 005°41'0 0.0
2018-Jun-15 20:15N 43°34' W 005°41'0 0.0
2018-Jun-15 19:45N 43°34' W 005°41'0 0.0
2018-Jun-15 19:27N 43°34' W 005°41'0 0.0
2018-Jun-15 17:39N 43°34' W 005°41'0 0.0
2018-Jun-15 17:21N 43°34' W 005°41'0 0.0
2018-Jun-15 16:51N 43°34' W 005°41'0 0.0
2018-Jun-15 16:27N 43°34' W 005°41'0 0.0
2018-Jun-15 15:57N 43°34' W 005°41'0 0.0
2018-Jun-15 15:27N 43°34' W 005°41'0 0.0
2018-Jun-15 14:51N 43°34' W 005°41'0 0.0
2018-Jun-15 14:27N 43°34' W 005°41'0 0.0
2018-Jun-15 13:57N 43°34' W 005°41'0 0.0
2018-Jun-15 13:27N 43°34' W 005°41'0 0.0
2018-Jun-15 12:45N 43°34' W 005°41'0 0.0
2018-Jun-15 12:21N 43°34' W 005°41'0 0.0
2018-Jun-15 11:57N 43°34' W 005°41'0 0.0
2018-Jun-15 11:27N 43°34' W 005°41'0 0.0
2018-Jun-15 10:09N 43°34' W 005°41'0 0.0
2018-Jun-15 09:45N 43°34' W 005°41'0 0.0
2018-Jun-15 09:15N 43°34' W 005°41'0 0.0
2018-Jun-15 08:15N 43°34' W 005°41'0 0.0
2018-Jun-15 07:57N 43°34' W 005°41'0 0.0
2018-Jun-15 07:27N 43°34' W 005°41'0 0.0
2018-Jun-15 06:57N 43°34' W 005°41'0 0.0
2018-Jun-15 06:21N 43°34' W 005°41'0 0.0
2018-Jun-15 05:27N 43°34' W 005°41'0 0.0
2018-Jun-15 04:45N 43°34' W 005°41'0 0.0
2018-Jun-15 04:15N 43°34' W 005°41'0 0.0
2018-Jun-15 03:51N 43°34' W 005°41'0 0.0
2018-Jun-15 03:27N 43°34' W 005°41'0 0.0
2018-Jun-15 02:57N 43°34' W 005°41'0 0.0
2018-Jun-15 02:15N 43°34' W 005°41'0 0.0
2018-Jun-14 20:03N 43°34' W 005°41'0 0.0
2018-Jun-14 19:45N 43°34' W 005°41'0 0.0
2018-Jun-14 19:15N 43°34' W 005°41'0 0.0
2018-Jun-14 18:45N 43°34' W 005°41'0 0.0
2018-Jun-14 18:21N 43°34' W 005°41'0 0.0
2018-Jun-14 17:57N 43°34' W 005°41'0 0.0
2018-Jun-14 17:21N 43°34' W 005°41'0 0.0
2018-Jun-14 16:51N 43°34' W 005°41'0 0.0
2018-Jun-14 16:27N 43°34' W 005°41'0 0.0
2018-Jun-14 15:57N 43°34' W 005°41'0 0.9
2018-Jun-14 15:28N 43°34' W 005°41'3 6.9
2018-Jun-14 15:00N 43°37' W 005°41'4 7.5
2018-Jun-14 14:29N 43°41' W 005°41'510.8
2018-Jun-14 14:00N 43°46' W 005°44'1312.0
2018-Jun-14 12:54N 43°51' W 006°01'  

Dump ship's entire track history